sensor_id;sensor_type;location;lat;lon;timestamp;P1;durP1;ratioP1;P2;durP2;ratioP2
6280;SDS011;3173;48.204;11.612;2022-09-13T00:02:16;6.47;;;4.50;;
6280;SDS011;3173;48.204;11.612;2022-09-13T00:04:42;8.40;;;5.17;;
6280;SDS011;3173;48.204;11.612;2022-09-13T00:07:08;8.10;;;4.00;;
6280;SDS011;3173;48.204;11.612;2022-09-13T00:09:34;6.93;;;4.37;;
6280;SDS011;3173;48.204;11.612;2022-09-13T00:12:01;5.80;;;4.37;;
6280;SDS011;3173;48.204;11.612;2022-09-13T00:14:27;6.53;;;4.77;;
6280;SDS011;3173;48.204;11.612;2022-09-13T00:16:53;5.87;;;4.40;;
6280;SDS011;3173;48.204;11.612;2022-09-13T00:19:19;9.60;;;5.07;;
6280;SDS011;3173;48.204;11.612;2022-09-13T00:21:45;5.50;;;4.23;;
6280;SDS011;3173;48.204;11.612;2022-09-13T00:24:12;8.60;;;5.20;;
6280;SDS011;3173;48.204;11.612;2022-09-13T00:26:38;5.30;;;4.40;;
6280;SDS011;3173;48.204;11.612;2022-09-13T00:29:04;11.20;;;4.53;;
6280;SDS011;3173;48.204;11.612;2022-09-13T00:31:30;5.30;;;4.20;;
6280;SDS011;3173;48.204;11.612;2022-09-13T00:33:57;6.20;;;5.03;;
6280;SDS011;3173;48.204;11.612;2022-09-13T00:36:24;6.23;;;4.80;;
6280;SDS011;3173;48.204;11.612;2022-09-13T00:38:50;5.50;;;4.50;;
6280;SDS011;3173;48.204;11.612;2022-09-13T00:41:17;6.90;;;4.80;;
6280;SDS011;3173;48.204;11.612;2022-09-13T00:46:10;6.20;;;4.50;;
6280;SDS011;3173;48.204;11.612;2022-09-13T00:48:38;9.20;;;4.90;;
6280;SDS011;3173;48.204;11.612;2022-09-13T00:51:04;6.60;;;4.60;;
6280;SDS011;3173;48.204;11.612;2022-09-13T00:53:33;6.30;;;4.70;;
6280;SDS011;3173;48.204;11.612;2022-09-13T00:59:00;6.93;;;4.60;;
6280;SDS011;3173;48.204;11.612;2022-09-13T01:01:18;7.07;;;4.80;;
6280;SDS011;3173;48.204;11.612;2022-09-13T01:03:45;7.00;;;4.47;;
6280;SDS011;3173;48.204;11.612;2022-09-13T01:06:14;5.87;;;4.53;;
6280;SDS011;3173;48.204;11.612;2022-09-13T01:08:42;6.30;;;4.50;;
6280;SDS011;3173;48.204;11.612;2022-09-13T01:11:14;7.00;;;4.50;;
6280;SDS011;3173;48.204;11.612;2022-09-13T01:13:41;6.10;;;3.77;;
6280;SDS011;3173;48.204;11.612;2022-09-13T01:16:07;6.93;;;4.93;;
6280;SDS011;3173;48.204;11.612;2022-09-13T01:18:34;10.43;;;3.73;;
6280;SDS011;3173;48.204;11.612;2022-09-13T01:36:17;5.83;;;4.17;;
6280;SDS011;3173;48.204;11.612;2022-09-13T01:38:52;4.70;;;3.83;;
6280;SDS011;3173;48.204;11.612;2022-09-13T01:41:41;7.57;;;3.87;;
6280;SDS011;3173;48.204;11.612;2022-09-13T01:44:24;7.17;;;4.20;;
6280;SDS011;3173;48.204;11.612;2022-09-13T01:49:24;5.80;;;4.30;;
6280;SDS011;3173;48.204;11.612;2022-09-13T01:59:38;5.70;;;3.77;;
6280;SDS011;3173;48.204;11.612;2022-09-13T02:02:10;8.03;;;3.73;;
6280;SDS011;3173;48.204;11.612;2022-09-13T02:04:40;5.83;;;3.67;;
6280;SDS011;3173;48.204;11.612;2022-09-13T02:10:13;6.43;;;3.63;;
6280;SDS011;3173;48.204;11.612;2022-09-13T02:12:42;6.77;;;4.07;;
6280;SDS011;3173;48.204;11.612;2022-09-13T02:17:37;5.30;;;3.80;;
6280;SDS011;3173;48.204;11.612;2022-09-13T02:20:23;11.37;;;3.70;;
6280;SDS011;3173;48.204;11.612;2022-09-13T02:22:52;5.40;;;3.50;;
6280;SDS011;3173;48.204;11.612;2022-09-13T02:25:19;8.50;;;3.67;;
6280;SDS011;3173;48.204;11.612;2022-09-13T02:27:48;5.23;;;3.40;;
6280;SDS011;3173;48.204;11.612;2022-09-13T02:30:15;6.47;;;3.97;;
6280;SDS011;3173;48.204;11.612;2022-09-13T02:32:43;3.80;;;3.00;;
6280;SDS011;3173;48.204;11.612;2022-09-13T02:35:13;3.97;;;3.20;;
6280;SDS011;3173;48.204;11.612;2022-09-13T02:37:41;5.20;;;3.43;;
6280;SDS011;3173;48.204;11.612;2022-09-13T02:40:10;5.33;;;3.33;;
6280;SDS011;3173;48.204;11.612;2022-09-13T02:42:42;5.00;;;3.40;;
6280;SDS011;3173;48.204;11.612;2022-09-13T02:45:10;6.10;;;3.60;;
6280;SDS011;3173;48.204;11.612;2022-09-13T02:47:47;5.73;;;3.77;;
6280;SDS011;3173;48.204;11.612;2022-09-13T02:58:08;4.90;;;3.63;;
6280;SDS011;3173;48.204;11.612;2022-09-13T03:00:35;4.37;;;3.03;;
6280;SDS011;3173;48.204;11.612;2022-09-13T03:03:02;4.33;;;3.30;;
6280;SDS011;3173;48.204;11.612;2022-09-13T03:05:29;4.50;;;2.77;;
6280;SDS011;3173;48.204;11.612;2022-09-13T03:07:56;5.57;;;3.40;;
6280;SDS011;3173;48.204;11.612;2022-09-13T03:10:22;4.83;;;3.30;;
6280;SDS011;3173;48.204;11.612;2022-09-13T03:13:03;5.90;;;3.27;;
6280;SDS011;3173;48.204;11.612;2022-09-13T03:18:16;6.80;;;4.03;;
6280;SDS011;3173;48.204;11.612;2022-09-13T03:28:25;5.00;;;3.60;;
6280;SDS011;3173;48.204;11.612;2022-09-13T03:31:02;4.23;;;3.30;;
6280;SDS011;3173;48.204;11.612;2022-09-13T03:33:33;4.30;;;2.93;;
6280;SDS011;3173;48.204;11.612;2022-09-13T03:36:03;3.80;;;3.30;;
6280;SDS011;3173;48.204;11.612;2022-09-13T03:38:41;5.73;;;3.60;;
6280;SDS011;3173;48.204;11.612;2022-09-13T03:41:09;5.50;;;3.70;;
6280;SDS011;3173;48.204;11.612;2022-09-13T03:46:03;5.80;;;2.73;;
6280;SDS011;3173;48.204;11.612;2022-09-13T03:48:31;4.33;;;3.40;;
6280;SDS011;3173;48.204;11.612;2022-09-13T03:51:01;4.33;;;3.00;;
6280;SDS011;3173;48.204;11.612;2022-09-13T03:53:27;7.80;;;3.57;;
6280;SDS011;3173;48.204;11.612;2022-09-13T03:55:55;7.63;;;3.77;;
6280;SDS011;3173;48.204;11.612;2022-09-13T03:58:21;8.10;;;3.50;;
6280;SDS011;3173;48.204;11.612;2022-09-13T04:00:47;12.60;;;3.30;;
6280;SDS011;3173;48.204;11.612;2022-09-13T04:03:14;5.53;;;3.50;;
6280;SDS011;3173;48.204;11.612;2022-09-13T04:05:40;4.90;;;3.60;;
6280;SDS011;3173;48.204;11.612;2022-09-13T04:08:06;5.03;;;3.57;;
6280;SDS011;3173;48.204;11.612;2022-09-13T04:10:32;4.13;;;2.93;;
6280;SDS011;3173;48.204;11.612;2022-09-13T04:12:58;4.00;;;3.27;;
6280;SDS011;3173;48.204;11.612;2022-09-13T04:15:28;4.97;;;3.23;;
6280;SDS011;3173;48.204;11.612;2022-09-13T04:17:55;5.50;;;3.67;;
6280;SDS011;3173;48.204;11.612;2022-09-13T04:20:21;7.87;;;3.67;;
6280;SDS011;3173;48.204;11.612;2022-09-13T04:22:53;3.83;;;3.43;;
6280;SDS011;3173;48.204;11.612;2022-09-13T04:25:20;4.40;;;3.03;;
6280;SDS011;3173;48.204;11.612;2022-09-13T04:27:46;4.63;;;3.13;;
6280;SDS011;3173;48.204;11.612;2022-09-13T04:30:12;5.00;;;2.73;;
6280;SDS011;3173;48.204;11.612;2022-09-13T04:32:38;5.47;;;3.13;;
6280;SDS011;3173;48.204;11.612;2022-09-13T04:35:04;6.03;;;3.40;;
6280;SDS011;3173;48.204;11.612;2022-09-13T04:37:33;5.13;;;3.33;;
6280;SDS011;3173;48.204;11.612;2022-09-13T04:39:59;3.80;;;3.10;;
6280;SDS011;3173;48.204;11.612;2022-09-13T04:42:25;4.73;;;2.97;;
6280;SDS011;3173;48.204;11.612;2022-09-13T04:44:51;4.20;;;2.73;;
6280;SDS011;3173;48.204;11.612;2022-09-13T04:47:17;4.00;;;2.50;;
6280;SDS011;3173;48.204;11.612;2022-09-13T04:49:43;4.03;;;3.03;;
6280;SDS011;3173;48.204;11.612;2022-09-13T04:52:09;7.53;;;3.43;;
6280;SDS011;3173;48.204;11.612;2022-09-13T04:54:35;8.10;;;2.57;;
6280;SDS011;3173;48.204;11.612;2022-09-13T04:57:01;5.70;;;2.90;;
6280;SDS011;3173;48.204;11.612;2022-09-13T04:59:27;6.20;;;2.83;;
6280;SDS011;3173;48.204;11.612;2022-09-13T05:01:53;4.50;;;2.53;;
6280;SDS011;3173;48.204;11.612;2022-09-13T05:04:20;2.93;;;2.47;;
6280;SDS011;3173;48.204;11.612;2022-09-13T05:06:45;5.80;;;3.17;;
6280;SDS011;3173;48.204;11.612;2022-09-13T05:09:13;3.90;;;3.07;;
6280;SDS011;3173;48.204;11.612;2022-09-13T05:11:39;4.70;;;3.10;;
6280;SDS011;3173;48.204;11.612;2022-09-13T05:14:05;3.73;;;2.60;;
6280;SDS011;3173;48.204;11.612;2022-09-13T05:16:31;3.90;;;2.87;;
6280;SDS011;3173;48.204;11.612;2022-09-13T05:18:58;4.13;;;2.80;;
6280;SDS011;3173;48.204;11.612;2022-09-13T05:21:24;7.23;;;2.60;;
6280;SDS011;3173;48.204;11.612;2022-09-13T05:23:52;5.70;;;3.13;;
6280;SDS011;3173;48.204;11.612;2022-09-13T05:26:18;5.83;;;3.50;;
6280;SDS011;3173;48.204;11.612;2022-09-13T05:28:44;6.17;;;2.97;;
6280;SDS011;3173;48.204;11.612;2022-09-13T05:31:17;3.57;;;2.50;;
6280;SDS011;3173;48.204;11.612;2022-09-13T05:33:44;6.20;;;2.57;;
6280;SDS011;3173;48.204;11.612;2022-09-13T05:36:11;14.13;;;3.30;;
6280;SDS011;3173;48.204;11.612;2022-09-13T05:38:37;5.63;;;3.50;;
6280;SDS011;3173;48.204;11.612;2022-09-13T05:41:03;8.50;;;3.30;;
6280;SDS011;3173;48.204;11.612;2022-09-13T05:43:31;4.23;;;2.43;;
6280;SDS011;3173;48.204;11.612;2022-09-13T05:48:27;3.20;;;2.87;;
6280;SDS011;3173;48.204;11.612;2022-09-13T05:50:53;6.50;;;3.20;;
6280;SDS011;3173;48.204;11.612;2022-09-13T05:53:19;4.80;;;3.20;;
6280;SDS011;3173;48.204;11.612;2022-09-13T05:55:45;7.93;;;3.37;;
6280;SDS011;3173;48.204;11.612;2022-09-13T05:58:11;5.90;;;3.20;;
6280;SDS011;3173;48.204;11.612;2022-09-13T06:00:37;7.47;;;3.40;;
6280;SDS011;3173;48.204;11.612;2022-09-13T06:03:03;8.33;;;2.93;;
6280;SDS011;3173;48.204;11.612;2022-09-13T06:05:29;4.50;;;3.10;;
6280;SDS011;3173;48.204;11.612;2022-09-13T06:07:54;4.10;;;3.00;;
6280;SDS011;3173;48.204;11.612;2022-09-13T06:10:20;6.90;;;3.07;;
6280;SDS011;3173;48.204;11.612;2022-09-13T06:12:49;4.23;;;3.20;;
6280;SDS011;3173;48.204;11.612;2022-09-13T06:15:15;4.00;;;3.17;;
6280;SDS011;3173;48.204;11.612;2022-09-13T06:17:41;5.47;;;2.97;;
6280;SDS011;3173;48.204;11.612;2022-09-13T06:20:07;8.20;;;3.50;;
6280;SDS011;3173;48.204;11.612;2022-09-13T06:22:34;6.23;;;3.07;;
6280;SDS011;3173;48.204;11.612;2022-09-13T06:25:00;3.87;;;2.70;;
6280;SDS011;3173;48.204;11.612;2022-09-13T06:27:27;6.80;;;2.90;;
6280;SDS011;3173;48.204;11.612;2022-09-13T06:29:54;4.63;;;3.10;;
6280;SDS011;3173;48.204;11.612;2022-09-13T06:32:20;11.13;;;2.93;;
6280;SDS011;3173;48.204;11.612;2022-09-13T06:34:46;6.60;;;3.70;;
6280;SDS011;3173;48.204;11.612;2022-09-13T06:37:12;6.33;;;3.33;;
6280;SDS011;3173;48.204;11.612;2022-09-13T06:39:38;6.23;;;2.83;;
6280;SDS011;3173;48.204;11.612;2022-09-13T06:42:04;10.27;;;4.10;;
6280;SDS011;3173;48.204;11.612;2022-09-13T06:44:30;7.67;;;3.50;;
6280;SDS011;3173;48.204;11.612;2022-09-13T06:46:56;15.70;;;3.90;;
6280;SDS011;3173;48.204;11.612;2022-09-13T06:49:21;9.77;;;3.97;;
6280;SDS011;3173;48.204;11.612;2022-09-13T06:51:48;10.93;;;3.53;;
6280;SDS011;3173;48.204;11.612;2022-09-13T06:54:14;11.10;;;3.60;;
6280;SDS011;3173;48.204;11.612;2022-09-13T06:56:40;6.70;;;2.97;;
6280;SDS011;3173;48.204;11.612;2022-09-13T06:59:06;9.50;;;3.20;;
6280;SDS011;3173;48.204;11.612;2022-09-13T07:01:34;5.23;;;3.03;;
6280;SDS011;3173;48.204;11.612;2022-09-13T07:04:01;6.93;;;3.43;;
6280;SDS011;3173;48.204;11.612;2022-09-13T07:06:28;7.03;;;3.17;;
6280;SDS011;3173;48.204;11.612;2022-09-13T07:08:55;6.17;;;3.60;;
6280;SDS011;3173;48.204;11.612;2022-09-13T07:11:24;4.83;;;2.80;;
6280;SDS011;3173;48.204;11.612;2022-09-13T07:13:51;9.40;;;3.57;;
6280;SDS011;3173;48.204;11.612;2022-09-13T07:16:17;5.63;;;2.70;;
6280;SDS011;3173;48.204;11.612;2022-09-13T07:18:44;8.60;;;3.20;;
6280;SDS011;3173;48.204;11.612;2022-09-13T07:21:15;11.00;;;3.37;;
6280;SDS011;3173;48.204;11.612;2022-09-13T07:23:42;4.10;;;2.50;;
6280;SDS011;3173;48.204;11.612;2022-09-13T07:26:11;4.67;;;2.47;;
6280;SDS011;3173;48.204;11.612;2022-09-13T07:28:38;6.20;;;2.03;;
6280;SDS011;3173;48.204;11.612;2022-09-13T07:31:25;6.17;;;2.57;;
6280;SDS011;3173;48.204;11.612;2022-09-13T07:33:54;8.57;;;1.50;;
6280;SDS011;3173;48.204;11.612;2022-09-13T07:36:20;5.97;;;2.00;;
6280;SDS011;3173;48.204;11.612;2022-09-13T07:38:46;8.53;;;2.00;;
6280;SDS011;3173;48.204;11.612;2022-09-13T07:41:16;4.30;;;2.13;;
6280;SDS011;3173;48.204;11.612;2022-09-13T07:43:43;2.37;;;1.50;;
6280;SDS011;3173;48.204;11.612;2022-09-13T07:46:10;6.80;;;1.80;;
6280;SDS011;3173;48.204;11.612;2022-09-13T07:48:37;4.10;;;1.30;;
6280;SDS011;3173;48.204;11.612;2022-09-13T07:51:07;2.10;;;1.40;;
6280;SDS011;3173;48.204;11.612;2022-09-13T07:53:34;6.03;;;1.73;;
6280;SDS011;3173;48.204;11.612;2022-09-13T07:56:01;3.63;;;1.53;;
6280;SDS011;3173;48.204;11.612;2022-09-13T07:58:27;2.33;;;1.20;;
6280;SDS011;3173;48.204;11.612;2022-09-13T08:00:53;4.73;;;1.50;;
6280;SDS011;3173;48.204;11.612;2022-09-13T08:03:19;5.77;;;1.50;;
6280;SDS011;3173;48.204;11.612;2022-09-13T08:05:45;5.63;;;1.77;;
6280;SDS011;3173;48.204;11.612;2022-09-13T08:08:11;4.00;;;1.90;;
6280;SDS011;3173;48.204;11.612;2022-09-13T08:10:37;3.30;;;1.87;;
6280;SDS011;3173;48.204;11.612;2022-09-13T08:13:03;4.40;;;1.20;;
6280;SDS011;3173;48.204;11.612;2022-09-13T08:15:29;2.03;;;1.20;;
6280;SDS011;3173;48.204;11.612;2022-09-13T08:17:55;3.70;;;1.57;;
6280;SDS011;3173;48.204;11.612;2022-09-13T08:20:21;4.83;;;1.83;;
6280;SDS011;3173;48.204;11.612;2022-09-13T08:22:47;6.30;;;2.07;;
6280;SDS011;3173;48.204;11.612;2022-09-13T08:25:13;1.50;;;0.93;;
6280;SDS011;3173;48.204;11.612;2022-09-13T08:27:39;1.60;;;0.97;;
6280;SDS011;3173;48.204;11.612;2022-09-13T08:30:05;1.70;;;1.20;;
6280;SDS011;3173;48.204;11.612;2022-09-13T08:32:31;2.30;;;0.77;;
6280;SDS011;3173;48.204;11.612;2022-09-13T08:34:57;3.13;;;1.00;;
6280;SDS011;3173;48.204;11.612;2022-09-13T08:37:23;1.90;;;1.00;;
6280;SDS011;3173;48.204;11.612;2022-09-13T08:39:49;3.70;;;1.00;;
6280;SDS011;3173;48.204;11.612;2022-09-13T08:42:20;1.87;;;0.83;;
6280;SDS011;3173;48.204;11.612;2022-09-13T08:44:50;2.00;;;0.90;;
6280;SDS011;3173;48.204;11.612;2022-09-13T08:50:25;3.70;;;1.20;;
6280;SDS011;3173;48.204;11.612;2022-09-13T08:58:22;1.33;;;0.70;;
6280;SDS011;3173;48.204;11.612;2022-09-13T09:00:53;1.20;;;0.80;;
6280;SDS011;3173;48.204;11.612;2022-09-13T09:03:34;5.73;;;0.90;;
6280;SDS011;3173;48.204;11.612;2022-09-13T09:06:02;4.47;;;0.83;;
6280;SDS011;3173;48.204;11.612;2022-09-13T09:08:29;1.50;;;0.80;;
6280;SDS011;3173;48.204;11.612;2022-09-13T09:10:59;2.60;;;1.00;;
6280;SDS011;3173;48.204;11.612;2022-09-13T09:13:30;1.70;;;0.70;;
6280;SDS011;3173;48.204;11.612;2022-09-13T09:15:58;3.97;;;1.00;;
6280;SDS011;3173;48.204;11.612;2022-09-13T09:18:36;1.87;;;0.80;;
6280;SDS011;3173;48.204;11.612;2022-09-13T09:21:03;1.63;;;0.87;;
6280;SDS011;3173;48.204;11.612;2022-09-13T09:23:38;1.00;;;0.70;;
6280;SDS011;3173;48.204;11.612;2022-09-13T09:26:16;6.40;;;1.10;;
6280;SDS011;3173;48.204;11.612;2022-09-13T09:28:49;1.90;;;0.73;;
6280;SDS011;3173;48.204;11.612;2022-09-13T09:36:38;2.00;;;0.70;;
6280;SDS011;3173;48.204;11.612;2022-09-13T09:39:04;3.43;;;0.80;;
6280;SDS011;3173;48.204;11.612;2022-09-13T09:41:32;1.33;;;0.67;;
6280;SDS011;3173;48.204;11.612;2022-09-13T09:46:29;1.43;;;0.77;;
6280;SDS011;3173;48.204;11.612;2022-09-13T09:49:03;1.03;;;0.67;;
6280;SDS011;3173;48.204;11.612;2022-09-13T09:51:50;1.10;;;0.70;;
6280;SDS011;3173;48.204;11.612;2022-09-13T09:54:16;2.00;;;0.70;;
6280;SDS011;3173;48.204;11.612;2022-09-13T09:56:51;1.93;;;0.70;;
6280;SDS011;3173;48.204;11.612;2022-09-13T09:59:27;2.07;;;0.80;;
6280;SDS011;3173;48.204;11.612;2022-09-13T10:01:56;2.70;;;0.80;;
6280;SDS011;3173;48.204;11.612;2022-09-13T10:04:22;1.57;;;0.80;;
6280;SDS011;3173;48.204;11.612;2022-09-13T10:06:49;3.53;;;0.67;;
6280;SDS011;3173;48.204;11.612;2022-09-13T10:09:16;1.30;;;0.60;;
6280;SDS011;3173;48.204;11.612;2022-09-13T10:11:50;7.10;;;0.70;;
6280;SDS011;3173;48.204;11.612;2022-09-13T10:19:29;1.20;;;0.80;;
6280;SDS011;3173;48.204;11.612;2022-09-13T10:24:25;4.00;;;0.80;;
6280;SDS011;3173;48.204;11.612;2022-09-13T10:26:52;5.20;;;0.90;;
6280;SDS011;3173;48.204;11.612;2022-09-13T10:29:18;1.90;;;0.70;;
6280;SDS011;3173;48.204;11.612;2022-09-13T10:31:46;1.47;;;0.70;;
6280;SDS011;3173;48.204;11.612;2022-09-13T10:34:18;1.33;;;0.60;;
6280;SDS011;3173;48.204;11.612;2022-09-13T10:39:14;1.43;;;0.90;;
6280;SDS011;3173;48.204;11.612;2022-09-13T10:41:42;2.33;;;0.93;;
6280;SDS011;3173;48.204;11.612;2022-09-13T10:44:24;4.10;;;0.80;;
6280;SDS011;3173;48.204;11.612;2022-09-13T10:46:51;1.63;;;0.60;;
6280;SDS011;3173;48.204;11.612;2022-09-13T10:52:20;2.17;;;0.50;;
6280;SDS011;3173;48.204;11.612;2022-09-13T10:54:48;1.63;;;0.50;;
6280;SDS011;3173;48.204;11.612;2022-09-13T10:57:33;2.27;;;0.83;;
6280;SDS011;3173;48.204;11.612;2022-09-13T11:00:00;4.53;;;0.80;;
6280;SDS011;3173;48.204;11.612;2022-09-13T11:07:45;1.90;;;0.70;;
6280;SDS011;3173;48.204;11.612;2022-09-13T11:12:45;2.30;;;0.60;;
6280;SDS011;3173;48.204;11.612;2022-09-13T11:18:09;1.60;;;0.63;;
6280;SDS011;3173;48.204;11.612;2022-09-13T11:43:55;3.97;;;0.70;;
6280;SDS011;3173;48.204;11.612;2022-09-13T11:46:36;2.63;;;1.10;;
6280;SDS011;3173;48.204;11.612;2022-09-13T11:49:19;6.43;;;0.83;;
6280;SDS011;3173;48.204;11.612;2022-09-13T11:55:04;2.03;;;0.80;;
6280;SDS011;3173;48.204;11.612;2022-09-13T11:57:06;1.33;;;0.57;;
6280;SDS011;3173;48.204;11.612;2022-09-13T12:04:45;3.27;;;0.77;;
6280;SDS011;3173;48.204;11.612;2022-09-13T12:07:18;2.00;;;0.70;;
6280;SDS011;3173;48.204;11.612;2022-09-13T12:09:52;1.90;;;0.70;;
6280;SDS011;3173;48.204;11.612;2022-09-13T12:12:20;1.10;;;0.60;;
6280;SDS011;3173;48.204;11.612;2022-09-13T12:14:56;1.73;;;0.80;;
6280;SDS011;3173;48.204;11.612;2022-09-13T12:17:41;1.77;;;0.70;;
6280;SDS011;3173;48.204;11.612;2022-09-13T12:20:19;2.43;;;0.60;;
6280;SDS011;3173;48.204;11.612;2022-09-13T12:22:49;2.10;;;0.70;;
6280;SDS011;3173;48.204;11.612;2022-09-13T12:25:23;1.50;;;0.70;;
6280;SDS011;3173;48.204;11.612;2022-09-13T12:27:53;0.90;;;0.60;;
6280;SDS011;3173;48.204;11.612;2022-09-13T12:30:20;1.23;;;0.60;;
6280;SDS011;3173;48.204;11.612;2022-09-13T12:32:47;0.90;;;0.50;;
6280;SDS011;3173;48.204;11.612;2022-09-13T12:37:52;4.00;;;0.60;;
6280;SDS011;3173;48.204;11.612;2022-09-13T12:48:19;1.13;;;0.53;;
6280;SDS011;3173;48.204;11.612;2022-09-13T13:03:46;1.37;;;0.70;;
6280;SDS011;3173;48.204;11.612;2022-09-13T13:08:53;1.00;;;0.40;;
6280;SDS011;3173;48.204;11.612;2022-09-13T13:11:24;1.10;;;0.53;;
6280;SDS011;3173;48.204;11.612;2022-09-13T13:13:57;1.93;;;0.60;;
6280;SDS011;3173;48.204;11.612;2022-09-13T13:16:34;2.23;;;0.60;;
6280;SDS011;3173;48.204;11.612;2022-09-13T13:19:43;2.40;;;0.70;;
6280;SDS011;3173;48.204;11.612;2022-09-13T13:21:50;1.40;;;0.70;;
6280;SDS011;3173;48.204;11.612;2022-09-13T13:26:45;2.80;;;0.70;;
6280;SDS011;3173;48.204;11.612;2022-09-13T13:29:13;1.53;;;0.60;;
6280;SDS011;3173;48.204;11.612;2022-09-13T13:31:43;1.40;;;0.60;;
6280;SDS011;3173;48.204;11.612;2022-09-13T13:39:08;1.47;;;0.60;;
6280;SDS011;3173;48.204;11.612;2022-09-13T13:46:48;1.53;;;0.60;;
6280;SDS011;3173;48.204;11.612;2022-09-13T13:57:57;2.07;;;0.70;;
6280;SDS011;3173;48.204;11.612;2022-09-13T13:59:53;1.47;;;0.50;;
6280;SDS011;3173;48.204;11.612;2022-09-13T14:02:22;1.13;;;0.60;;
6280;SDS011;3173;48.204;11.612;2022-09-13T14:10:06;2.30;;;0.70;;
6280;SDS011;3173;48.204;11.612;2022-09-13T14:12:49;1.73;;;0.50;;
6280;SDS011;3173;48.204;11.612;2022-09-13T14:15:26;1.10;;;0.50;;
6280;SDS011;3173;48.204;11.612;2022-09-13T14:18:01;1.27;;;0.50;;
6280;SDS011;3173;48.204;11.612;2022-09-13T14:20:30;1.83;;;0.60;;
6280;SDS011;3173;48.204;11.612;2022-09-13T14:23:15;2.73;;;0.57;;
6280;SDS011;3173;48.204;11.612;2022-09-13T14:25:42;1.00;;;0.50;;
6280;SDS011;3173;48.204;11.612;2022-09-13T14:28:11;0.80;;;0.50;;
6280;SDS011;3173;48.204;11.612;2022-09-13T14:30:39;0.90;;;0.50;;
6280;SDS011;3173;48.204;11.612;2022-09-13T14:33:04;1.60;;;0.63;;
6280;SDS011;3173;48.204;11.612;2022-09-13T14:35:33;1.53;;;0.40;;
6280;SDS011;3173;48.204;11.612;2022-09-13T14:40:48;1.53;;;0.50;;
6280;SDS011;3173;48.204;11.612;2022-09-13T14:43:17;1.80;;;0.67;;
6280;SDS011;3173;48.204;11.612;2022-09-13T14:45:44;1.53;;;0.50;;
6280;SDS011;3173;48.204;11.612;2022-09-13T14:50:44;1.20;;;0.50;;
6280;SDS011;3173;48.204;11.612;2022-09-13T14:53:13;1.00;;;0.60;;
6280;SDS011;3173;48.204;11.612;2022-09-13T14:55:41;1.20;;;0.50;;
6280;SDS011;3173;48.204;11.612;2022-09-13T14:58:34;1.27;;;0.50;;
6280;SDS011;3173;48.204;11.612;2022-09-13T15:00:56;1.10;;;0.60;;
6280;SDS011;3173;48.204;11.612;2022-09-13T15:03:23;0.80;;;0.50;;
6280;SDS011;3173;48.204;11.612;2022-09-13T15:05:59;2.57;;;0.50;;
6280;SDS011;3173;48.204;11.612;2022-09-13T15:11:03;1.83;;;0.70;;
6280;SDS011;3173;48.204;11.612;2022-09-13T15:13:30;2.33;;;0.70;;
6280;SDS011;3173;48.204;11.612;2022-09-13T15:15:56;1.50;;;0.67;;
6280;SDS011;3173;48.204;11.612;2022-09-13T15:18:32;1.40;;;0.60;;
6280;SDS011;3173;48.204;11.612;2022-09-13T15:28:27;4.30;;;0.90;;
6280;SDS011;3173;48.204;11.612;2022-09-13T15:30:54;3.00;;;0.70;;
6280;SDS011;3173;48.204;11.612;2022-09-13T15:33:22;4.37;;;0.70;;
6280;SDS011;3173;48.204;11.612;2022-09-13T15:35:49;3.60;;;1.33;;
6280;SDS011;3173;48.204;11.612;2022-09-13T15:38:22;2.10;;;0.70;;
6280;SDS011;3173;48.204;11.612;2022-09-13T15:41:00;1.40;;;0.70;;
6280;SDS011;3173;48.204;11.612;2022-09-13T15:43:26;1.30;;;0.70;;
6280;SDS011;3173;48.204;11.612;2022-09-13T15:45:52;1.73;;;0.97;;
6280;SDS011;3173;48.204;11.612;2022-09-13T15:48:22;3.40;;;1.10;;
6280;SDS011;3173;48.204;11.612;2022-09-13T15:51:04;2.20;;;0.93;;
6280;SDS011;3173;48.204;11.612;2022-09-13T15:53:30;3.77;;;0.73;;
6280;SDS011;3173;48.204;11.612;2022-09-13T15:55:56;4.90;;;0.80;;
6280;SDS011;3173;48.204;11.612;2022-09-13T15:58:21;1.93;;;1.10;;
6280;SDS011;3173;48.204;11.612;2022-09-13T16:00:47;3.30;;;1.07;;
6280;SDS011;3173;48.204;11.612;2022-09-13T16:03:13;2.60;;;1.00;;
6280;SDS011;3173;48.204;11.612;2022-09-13T16:05:39;1.97;;;1.00;;
6280;SDS011;3173;48.204;11.612;2022-09-13T16:08:08;2.47;;;1.50;;
6280;SDS011;3173;48.204;11.612;2022-09-13T16:10:34;2.70;;;1.03;;
6280;SDS011;3173;48.204;11.612;2022-09-13T16:13:00;1.67;;;1.10;;
6280;SDS011;3173;48.204;11.612;2022-09-13T16:15:26;4.90;;;2.80;;
6280;SDS011;3173;48.204;11.612;2022-09-13T16:17:53;4.43;;;2.97;;
6280;SDS011;3173;48.204;11.612;2022-09-13T16:20:19;6.00;;;3.43;;
6280;SDS011;3173;48.204;11.612;2022-09-13T16:22:45;5.73;;;2.33;;
6280;SDS011;3173;48.204;11.612;2022-09-13T16:25:11;2.90;;;2.00;;
6280;SDS011;3173;48.204;11.612;2022-09-13T16:27:37;6.20;;;2.97;;
6280;SDS011;3173;48.204;11.612;2022-09-13T16:30:04;4.00;;;2.17;;
6280;SDS011;3173;48.204;11.612;2022-09-13T16:32:30;3.53;;;1.37;;
6280;SDS011;3173;48.204;11.612;2022-09-13T16:34:57;2.73;;;1.47;;
6280;SDS011;3173;48.204;11.612;2022-09-13T16:37:23;2.90;;;1.10;;
6280;SDS011;3173;48.204;11.612;2022-09-13T16:39:49;1.73;;;1.03;;
6280;SDS011;3173;48.204;11.612;2022-09-13T16:42:15;2.57;;;0.97;;
6280;SDS011;3173;48.204;11.612;2022-09-13T16:44:41;1.90;;;1.10;;
6280;SDS011;3173;48.204;11.612;2022-09-13T16:47:08;5.07;;;1.27;;
6280;SDS011;3173;48.204;11.612;2022-09-13T16:49:34;2.73;;;1.17;;
6280;SDS011;3173;48.204;11.612;2022-09-13T16:52:00;5.30;;;1.73;;
6280;SDS011;3173;48.204;11.612;2022-09-13T16:54:27;8.03;;;1.97;;
6280;SDS011;3173;48.204;11.612;2022-09-13T16:56:59;7.67;;;3.60;;
6280;SDS011;3173;48.204;11.612;2022-09-13T16:59:25;4.40;;;2.70;;
6280;SDS011;3173;48.204;11.612;2022-09-13T17:01:51;3.00;;;1.90;;
6280;SDS011;3173;48.204;11.612;2022-09-13T17:04:17;2.93;;;1.30;;
6280;SDS011;3173;48.204;11.612;2022-09-13T17:06:43;5.13;;;1.20;;
6280;SDS011;3173;48.204;11.612;2022-09-13T17:09:09;2.93;;;1.70;;
6280;SDS011;3173;48.204;11.612;2022-09-13T17:11:36;3.93;;;1.50;;
6280;SDS011;3173;48.204;11.612;2022-09-13T17:14:03;4.47;;;1.67;;
6280;SDS011;3173;48.204;11.612;2022-09-13T17:16:40;10.80;;;1.43;;
6280;SDS011;3173;48.204;11.612;2022-09-13T17:19:08;1.73;;;1.00;;
6280;SDS011;3173;48.204;11.612;2022-09-13T17:21:35;3.07;;;1.50;;
6280;SDS011;3173;48.204;11.612;2022-09-13T17:24:01;8.10;;;3.70;;
6280;SDS011;3173;48.204;11.612;2022-09-13T17:26:27;6.27;;;4.23;;
6280;SDS011;3173;48.204;11.612;2022-09-13T17:28:53;11.33;;;4.40;;
6280;SDS011;3173;48.204;11.612;2022-09-13T17:31:19;7.80;;;3.90;;
6280;SDS011;3173;48.204;11.612;2022-09-13T17:33:45;7.77;;;3.80;;
6280;SDS011;3173;48.204;11.612;2022-09-13T17:36:12;6.20;;;2.70;;
6280;SDS011;3173;48.204;11.612;2022-09-13T17:38:38;4.97;;;2.50;;
6280;SDS011;3173;48.204;11.612;2022-09-13T17:41:08;2.90;;;1.33;;
6280;SDS011;3173;48.204;11.612;2022-09-13T17:43:35;2.83;;;1.20;;
6280;SDS011;3173;48.204;11.612;2022-09-13T17:46:04;9.77;;;2.00;;
6280;SDS011;3173;48.204;11.612;2022-09-13T17:48:31;3.43;;;1.20;;
6280;SDS011;3173;48.204;11.612;2022-09-13T17:51:01;2.67;;;1.40;;
6280;SDS011;3173;48.204;11.612;2022-09-13T17:53:27;3.00;;;1.23;;
6280;SDS011;3173;48.204;11.612;2022-09-13T17:55:53;9.43;;;1.40;;
6280;SDS011;3173;48.204;11.612;2022-09-13T17:58:19;6.27;;;1.70;;
6280;SDS011;3173;48.204;11.612;2022-09-13T18:00:44;3.93;;;1.67;;
6280;SDS011;3173;48.204;11.612;2022-09-13T18:03:10;4.47;;;2.40;;
6280;SDS011;3173;48.204;11.612;2022-09-13T18:05:36;8.60;;;4.20;;
6280;SDS011;3173;48.204;11.612;2022-09-13T18:08:02;6.50;;;3.60;;
6280;SDS011;3173;48.204;11.612;2022-09-13T18:10:28;3.47;;;1.50;;
6280;SDS011;3173;48.204;11.612;2022-09-13T18:12:55;4.27;;;1.17;;
6280;SDS011;3173;48.204;11.612;2022-09-13T18:15:21;2.10;;;1.33;;
6280;SDS011;3173;48.204;11.612;2022-09-13T18:17:47;5.10;;;1.63;;
6280;SDS011;3173;48.204;11.612;2022-09-13T18:20:13;4.50;;;1.43;;
6280;SDS011;3173;48.204;11.612;2022-09-13T18:22:39;5.93;;;1.40;;
6280;SDS011;3173;48.204;11.612;2022-09-13T18:25:05;3.60;;;1.30;;
6280;SDS011;3173;48.204;11.612;2022-09-13T18:27:31;2.33;;;1.13;;